createdAt,value
2018-06-28T00:00:36.183Z,0
2018-06-28T00:01:37.832Z,0
2018-06-28T00:02:39.484Z,0
2018-06-28T00:03:41.146Z,0
2018-06-28T00:04:42.795Z,0
2018-06-28T00:05:45.007Z,0
2018-06-28T00:06:46.650Z,0
2018-06-28T00:07:48.306Z,0
2018-06-28T00:08:49.950Z,0
2018-06-28T00:09:52.004Z,0
2018-06-28T00:10:53.656Z,0
2018-06-28T00:11:55.317Z,0
2018-06-28T00:12:56.963Z,0
2018-06-28T00:13:58.620Z,0
2018-06-28T00:15:00.270Z,0
2018-06-28T00:16:01.916Z,0
2018-06-28T00:17:03.567Z,0
2018-06-28T00:18:05.220Z,0
2018-06-28T00:19:06.863Z,0
2018-06-28T00:20:08.522Z,0
2018-06-28T00:21:10.194Z,0
2018-06-28T00:22:11.844Z,0
2018-06-28T00:23:13.491Z,0
2018-06-28T00:24:15.137Z,0
2018-06-28T00:25:16.781Z,0
2018-06-28T00:26:18.448Z,0
2018-06-28T00:27:20.094Z,0
2018-06-28T00:28:21.755Z,0
2018-06-28T00:29:23.420Z,0
2018-06-28T00:30:25.070Z,0
2018-06-28T00:31:27.229Z,0
2018-06-28T00:32:28.888Z,0
2018-06-28T00:33:30.551Z,0
2018-06-28T00:34:32.202Z,0
2018-06-28T00:35:33.864Z,0
2018-06-28T00:36:35.530Z,0
2018-06-28T00:37:37.175Z,0
2018-06-28T00:38:38.826Z,0
2018-06-28T00:39:40.553Z,0
2018-06-28T00:40:42.203Z,0
2018-06-28T00:41:43.865Z,0
2018-06-28T00:42:45.519Z,0
2018-06-28T00:43:47.269Z,0
2018-06-28T00:44:48.784Z,0
2018-06-28T00:45:50.446Z,0
2018-06-28T00:46:52.089Z,0
2018-06-28T00:47:53.732Z,0
2018-06-28T00:48:55.387Z,0
2018-06-28T00:49:57.033Z,0
2018-06-28T00:50:58.689Z,0
2018-06-28T00:52:00.335Z,0
2018-06-28T00:53:01.993Z,0
2018-06-28T00:54:03.641Z,0
2018-06-28T00:55:05.291Z,0
2018-06-28T00:56:06.932Z,0
2018-06-28T00:57:08.579Z,0
2018-06-28T00:58:10.223Z,0
2018-06-28T00:59:11.864Z,0
2018-06-28T01:00:13.517Z,0
2018-06-28T01:01:15.168Z,0
2018-06-28T01:02:16.822Z,0
2018-06-28T01:03:18.483Z,0
2018-06-28T01:04:20.130Z,0
2018-06-28T01:05:21.780Z,0
2018-06-28T01:06:23.428Z,0
2018-06-28T01:07:25.079Z,0
2018-06-28T01:08:26.735Z,0
2018-06-28T01:09:28.379Z,0
2018-06-28T01:10:30.029Z,0
2018-06-28T01:11:31.690Z,0
2018-06-28T01:12:33.337Z,0
2018-06-28T01:13:34.996Z,0
2018-06-28T01:14:36.636Z,0
2018-06-28T01:15:38.286Z,0
2018-06-28T01:16:39.944Z,0
2018-06-28T01:17:41.592Z,0
2018-06-28T01:18:43.235Z,0
2018-06-28T01:19:44.883Z,0
2018-06-28T01:20:46.522Z,0
2018-06-28T01:21:48.180Z,0
2018-06-28T01:22:49.841Z,0
2018-06-28T01:23:51.483Z,0
2018-06-28T01:24:53.135Z,0
2018-06-28T01:25:54.824Z,0
2018-06-28T01:26:56.472Z,0
2018-06-28T01:27:58.126Z,0
2018-06-28T01:28:59.768Z,0
2018-06-28T01:30:01.417Z,0
2018-06-28T01:31:03.081Z,0
2018-06-28T01:32:04.742Z,0
2018-06-28T01:33:06.400Z,0
2018-06-28T01:34:08.046Z,0
2018-06-28T01:35:09.691Z,0
2018-06-28T01:36:11.344Z,0
2018-06-28T01:37:12.991Z,0
2018-06-28T01:38:14.636Z,0
2018-06-28T01:39:16.284Z,0
2018-06-28T01:40:17.943Z,0
2018-06-28T01:41:19.587Z,0
2018-06-28T01:42:21.236Z,0
2018-06-28T01:43:22.883Z,0
2018-06-28T01:44:24.527Z,0
2018-06-28T01:45:26.195Z,0
2018-06-28T01:46:27.835Z,0
2018-06-28T01:47:29.480Z,0
2018-06-28T01:48:31.128Z,0
2018-06-28T01:49:32.776Z,0
2018-06-28T01:50:34.421Z,0
2018-06-28T01:51:36.095Z,0
2018-06-28T01:52:37.723Z,0
2018-06-28T01:53:39.376Z,0
2018-06-28T01:54:41.034Z,0
2018-06-28T02:01:04.233Z,0
2018-06-28T02:02:05.873Z,0
2018-06-28T02:03:07.530Z,0
2018-06-28T02:04:09.178Z,0
2018-06-28T02:05:10.821Z,0
2018-06-28T02:06:12.480Z,0
2018-06-28T02:07:14.125Z,0
2018-06-28T02:08:15.778Z,0
2018-06-28T02:09:17.427Z,0
2018-06-28T02:10:19.072Z,0
2018-06-28T02:11:20.725Z,0
2018-06-28T02:12:22.362Z,0
2018-06-28T02:13:24.019Z,0
2018-06-28T02:14:25.665Z,0
2018-06-28T02:15:27.314Z,0
2018-06-28T02:16:28.973Z,0
2018-06-28T02:17:30.624Z,0
2018-06-28T02:18:32.280Z,0
2018-06-28T02:19:33.935Z,0
2018-06-28T02:20:35.586Z,0
2018-06-28T02:21:37.234Z,0
2018-06-28T02:22:38.895Z,0
2018-06-28T02:23:40.557Z,0
2018-06-28T02:24:42.189Z,0
2018-06-28T02:25:43.839Z,0
2018-06-28T02:26:45.484Z,0
2018-06-28T02:27:47.147Z,0
2018-06-28T02:28:48.793Z,0
2018-06-28T02:29:50.451Z,0
2018-06-28T02:30:52.102Z,0
2018-06-28T02:31:53.751Z,0
2018-06-28T02:32:55.398Z,0
2018-06-28T02:33:57.055Z,0
2018-06-28T02:34:58.702Z,0
2018-06-28T02:36:00.343Z,0
2018-06-28T02:37:01.995Z,0
2018-06-28T02:38:03.644Z,0
2018-06-28T02:39:05.284Z,0
2018-06-28T02:40:06.977Z,0
2018-06-28T02:41:08.633Z,0
2018-06-28T02:42:10.277Z,0
2018-06-28T02:43:11.929Z,0
2018-06-28T02:44:13.583Z,0
2018-06-28T02:45:15.228Z,0
2018-06-28T02:46:16.882Z,0
2018-06-28T02:47:18.525Z,0
2018-06-28T02:48:20.177Z,0
2018-06-28T02:49:21.823Z,0
2018-06-28T02:50:23.477Z,0
2018-06-28T02:51:25.128Z,0
2018-06-28T02:52:26.775Z,0
2018-06-28T02:53:28.429Z,0
2018-06-28T02:54:30.072Z,0
2018-06-28T02:55:31.738Z,0
2018-06-28T02:56:33.391Z,0
2018-06-28T02:57:35.037Z,0
2018-06-28T02:58:36.684Z,0
2018-06-28T02:59:38.347Z,0
2018-06-28T03:00:39.996Z,0
2018-06-28T03:01:41.640Z,5
2018-06-28T03:02:43.294Z,5
2018-06-28T03:03:48.117Z,5
2018-06-28T03:04:49.777Z,5
2018-06-28T03:05:51.431Z,5
2018-06-28T03:06:53.097Z,5
2018-06-28T03:07:54.744Z,5
2018-06-28T03:08:56.399Z,5
2018-06-28T03:09:58.067Z,10
2018-06-28T03:10:59.729Z,10
2018-06-28T03:12:01.396Z,10
2018-06-28T03:13:03.044Z,10
2018-06-28T03:14:04.708Z,10
2018-06-28T03:15:06.364Z,10
2018-06-28T03:16:08.025Z,15
2018-06-28T03:17:09.677Z,15
2018-06-28T03:18:11.337Z,15
2018-06-28T03:19:12.995Z,15
2018-06-28T03:20:14.651Z,15
2018-06-28T03:21:16.297Z,20
2018-06-28T03:22:17.954Z,20
2018-06-28T03:23:19.607Z,20
2018-06-28T03:24:21.273Z,25
2018-06-28T03:25:22.927Z,25
2018-06-28T03:26:24.595Z,25
2018-06-28T03:27:26.253Z,25
2018-06-28T03:28:27.905Z,30
2018-06-28T03:29:29.559Z,30
2018-06-28T03:30:31.215Z,30
2018-06-28T03:31:32.861Z,30
2018-06-28T03:32:34.505Z,35
2018-06-28T03:33:36.168Z,35
2018-06-28T03:34:37.820Z,35
2018-06-28T03:35:39.476Z,40
2018-06-28T03:36:41.750Z,40
2018-06-28T03:37:43.432Z,40
2018-06-28T03:38:45.064Z,40
2018-06-28T03:39:46.708Z,45
2018-06-28T03:40:48.370Z,45
2018-06-28T03:41:50.027Z,45
2018-06-28T03:42:51.683Z,45
2018-06-28T03:43:53.339Z,50
2018-06-28T03:44:54.987Z,50
2018-06-28T03:45:56.718Z,50
2018-06-28T03:46:58.311Z,55
2018-06-28T03:47:59.973Z,55
2018-06-28T03:49:01.922Z,55
2018-06-28T03:50:03.583Z,60
2018-06-28T03:51:05.234Z,60
2018-06-28T03:52:06.886Z,60
2018-06-28T03:53:08.545Z,65
2018-06-28T03:54:10.193Z,65
2018-06-28T03:55:11.847Z,70
2018-06-28T03:56:13.502Z,70
2018-06-28T03:57:15.147Z,75
2018-06-28T03:58:16.797Z,75
2018-06-28T03:59:18.449Z,80
2018-06-28T04:00:20.739Z,80
2018-06-28T04:01:22.392Z,85
2018-06-28T04:02:24.054Z,85
2018-06-28T04:03:25.706Z,90
2018-06-28T04:04:27.362Z,95
2018-06-28T04:05:29.020Z,95
2018-06-28T04:06:30.718Z,100
2018-06-28T04:07:32.337Z,100
2018-06-28T04:08:33.992Z,105
2018-06-28T04:09:35.654Z,110
2018-06-28T04:10:37.307Z,110
2018-06-28T04:11:38.968Z,115
2018-06-28T04:12:40.617Z,115
2018-06-28T04:13:42.272Z,120
2018-06-28T04:14:43.924Z,120
2018-06-28T04:15:45.645Z,125
2018-06-28T04:16:47.344Z,130
2018-06-28T04:17:48.939Z,130
2018-06-28T04:18:50.599Z,135
2018-06-28T04:19:52.252Z,135
2018-06-28T04:20:53.908Z,140
2018-06-28T04:21:55.578Z,145
2018-06-28T04:22:57.230Z,145
2018-06-28T04:23:58.967Z,150
2018-06-28T04:25:00.626Z,155
2018-06-28T04:26:02.281Z,165
2018-06-28T04:27:04.188Z,180
2018-06-28T04:28:05.817Z,185
2018-06-28T04:29:07.894Z,195
2018-06-28T04:30:09.557Z,205
2018-06-28T04:31:11.221Z,205
2018-06-28T04:32:12.888Z,210
2018-06-28T04:33:14.552Z,215
2018-06-28T04:34:16.222Z,215
2018-06-28T04:35:17.895Z,220
2018-06-28T04:36:19.554Z,225
2018-06-28T04:37:21.209Z,225
2018-06-28T04:38:22.910Z,230
2018-06-28T04:39:24.563Z,230
2018-06-28T04:40:26.229Z,235
2018-06-28T04:41:27.892Z,240
2018-06-28T04:42:29.547Z,240
2018-06-28T04:43:31.212Z,245
2018-06-28T04:44:32.894Z,245
2018-06-28T04:45:34.562Z,245
2018-06-28T04:46:36.233Z,250
2018-06-28T04:47:37.885Z,250
2018-06-28T04:48:39.535Z,250
2018-06-28T04:49:41.201Z,255
2018-06-28T04:50:42.866Z,260
2018-06-28T04:51:44.536Z,265
2018-06-28T04:52:46.192Z,270
2018-06-28T04:53:47.861Z,275
2018-06-28T04:54:50.772Z,275
2018-06-28T04:55:52.742Z,280
2018-06-28T04:56:54.389Z,280
2018-06-28T04:57:56.051Z,280
2018-06-28T04:58:57.721Z,280
2018-06-28T04:59:59.380Z,280
2018-06-28T05:01:01.055Z,280
2018-06-28T05:02:02.714Z,280
2018-06-28T05:03:04.390Z,285
2018-06-28T05:04:06.057Z,295
2018-06-28T05:05:07.725Z,295
2018-06-28T05:06:09.379Z,300
2018-06-28T05:07:11.141Z,305
2018-06-28T05:08:12.670Z,310
2018-06-28T05:09:14.334Z,310
2018-06-28T05:10:16.005Z,310
2018-06-28T05:11:17.656Z,315
2018-06-28T05:12:19.320Z,315
2018-06-28T05:13:21.009Z,315
2018-06-28T05:14:22.667Z,310
2018-06-28T05:15:24.336Z,310
2018-06-28T05:16:25.989Z,315
2018-06-28T05:17:27.650Z,315
2018-06-28T05:18:29.314Z,315
2018-06-28T05:19:30.980Z,320
2018-06-28T05:20:32.635Z,325
2018-06-28T05:21:34.293Z,330
2018-06-28T05:22:35.959Z,340
2018-06-28T05:23:37.626Z,345
2018-06-28T05:24:39.283Z,345
2018-06-28T05:25:40.947Z,350
2018-06-28T05:26:42.610Z,355
2018-06-28T05:27:44.266Z,355
2018-06-28T05:28:45.933Z,365
2018-06-28T05:29:47.606Z,365
2018-06-28T05:30:49.271Z,365
2018-06-28T05:31:50.926Z,370
2018-06-28T05:32:52.576Z,370
2018-06-28T05:33:54.244Z,370
2018-06-28T05:34:55.946Z,365
2018-06-28T05:35:57.541Z,365
2018-06-28T05:36:59.208Z,370
2018-06-28T05:38:00.871Z,365
2018-06-28T05:39:02.529Z,375
2018-06-28T05:40:04.222Z,380
2018-06-28T05:41:05.876Z,385
2018-06-28T05:42:07.552Z,390
2018-06-28T05:43:09.215Z,390
2018-06-28T05:44:10.883Z,395
2018-06-28T05:45:12.602Z,410
2018-06-28T05:46:14.219Z,400
2018-06-28T05:47:15.883Z,410
2018-06-28T05:48:17.541Z,415
2018-06-28T05:49:19.215Z,420
2018-06-28T05:50:20.875Z,425
2018-06-28T05:51:22.538Z,430
2018-06-28T05:52:24.216Z,430
2018-06-28T05:53:25.876Z,425
2018-06-28T05:54:27.533Z,435
2018-06-28T05:55:29.206Z,440
2018-06-28T06:01:53.190Z,450
2018-06-28T06:02:54.845Z,450
2018-06-28T06:03:56.509Z,440
2018-06-28T06:04:58.171Z,440
2018-06-28T06:05:59.843Z,450
2018-06-28T06:07:01.500Z,455
2018-06-28T06:08:03.167Z,460
2018-06-28T06:09:05.496Z,460
2018-06-28T06:10:07.158Z,470
2018-06-28T06:11:08.816Z,470
2018-06-28T06:12:10.510Z,465
2018-06-28T06:13:12.106Z,470
2018-06-28T06:14:13.772Z,480
2018-06-28T06:15:15.432Z,495
2018-06-28T06:16:17.103Z,500
2018-06-28T06:17:18.763Z,505
2018-06-28T06:18:20.428Z,500
2018-06-28T06:19:22.085Z,505
2018-06-28T06:20:23.798Z,495
2018-06-28T06:21:25.428Z,510
2018-06-28T06:22:27.096Z,520
2018-06-28T06:23:28.770Z,485
2018-06-28T06:24:30.439Z,465
2018-06-28T06:25:32.160Z,480
2018-06-28T06:26:33.794Z,470
2018-06-28T06:27:35.462Z,495
2018-06-28T06:28:37.127Z,520
2018-06-28T06:29:38.794Z,515
2018-06-28T06:30:40.465Z,520
2018-06-28T06:31:42.123Z,500
2018-06-28T06:32:43.792Z,495
2018-06-28T06:33:45.469Z,490
2018-06-28T06:34:47.151Z,495
2018-06-28T06:35:48.826Z,515
2018-06-28T06:36:50.489Z,510
2018-06-28T06:37:52.170Z,515
2018-06-28T06:38:53.828Z,525
2018-06-28T06:39:55.523Z,535
2018-06-28T06:40:57.197Z,540
2018-06-28T06:41:58.859Z,550
2018-06-28T06:43:00.528Z,595
2018-06-28T06:44:02.223Z,620
2018-06-28T06:45:03.907Z,625
2018-06-28T06:46:05.575Z,620
2018-06-28T06:47:07.247Z,635
2018-06-28T06:48:08.930Z,645
2018-06-28T06:49:10.703Z,665
2018-06-28T06:50:12.256Z,705
2018-06-28T06:51:13.930Z,690
2018-06-28T06:52:15.658Z,640
2018-06-28T06:53:17.314Z,715
2018-06-28T06:54:18.989Z,705
2018-06-28T06:55:20.676Z,715
2018-06-28T06:56:22.336Z,755
2018-06-28T06:57:24.008Z,790
2018-06-28T06:58:25.679Z,810
2018-06-28T06:59:27.354Z,825
2018-06-28T07:00:29.012Z,835
2018-06-28T07:01:30.693Z,850
2018-06-28T07:02:32.367Z,825
2018-06-28T07:03:34.093Z,795
2018-06-28T07:04:35.665Z,830
2018-06-28T07:05:37.345Z,910
2018-06-28T07:06:39.020Z,910
2018-06-28T07:07:40.688Z,910
2018-06-28T07:08:42.362Z,1000
2018-06-28T07:09:44.033Z,1135
2018-06-28T07:10:45.706Z,1210
2018-06-28T07:11:47.388Z,1305
2018-06-28T07:12:49.060Z,1455
2018-06-28T07:13:50.732Z,1570
2018-06-28T07:14:52.404Z,1600
2018-06-28T07:15:54.094Z,1665
2018-06-28T07:16:55.745Z,1840
2018-06-28T07:17:57.423Z,1960
2018-06-28T07:18:59.095Z,1985
2018-06-28T07:20:00.769Z,2155
2018-06-28T07:21:02.443Z,2190
2018-06-28T07:22:04.136Z,2310
2018-06-28T07:23:06.054Z,2310
2018-06-28T07:24:07.450Z,2220
2018-06-28T07:25:09.132Z,2285
2018-06-28T07:26:10.808Z,2220
2018-06-28T07:27:12.475Z,1815
2018-06-28T07:28:14.161Z,2125
2018-06-28T07:29:15.816Z,2405
2018-06-28T07:30:17.492Z,2565
2018-06-28T07:31:19.162Z,2350
2018-06-28T07:32:20.820Z,2325
2018-06-28T07:33:22.500Z,2240
2018-06-28T07:34:24.175Z,2325
2018-06-28T07:35:25.841Z,2355
2018-06-28T07:36:27.512Z,2250
2018-06-28T07:37:29.186Z,2245
2018-06-28T07:38:30.849Z,2140
2018-06-28T07:39:32.522Z,2060
2018-06-28T07:40:34.187Z,1965
2018-06-28T07:41:35.859Z,1945
2018-06-28T07:42:37.537Z,1955
2018-06-28T07:43:39.206Z,1890
2018-06-28T07:44:40.877Z,1810
2018-06-28T07:45:42.558Z,1810
2018-06-28T07:46:44.276Z,1800
2018-06-28T07:47:45.912Z,1795
2018-06-28T07:48:47.587Z,1785
2018-06-28T07:49:49.259Z,1730
2018-06-28T07:50:50.923Z,1745
2018-06-28T07:51:52.591Z,1755
2018-06-28T07:52:54.269Z,1780
2018-06-28T07:53:55.953Z,1810
2018-06-28T07:54:57.636Z,1765
2018-06-28T07:55:59.314Z,1665
2018-06-28T07:57:01.003Z,1615
2018-06-28T07:58:02.680Z,1670
2018-06-28T07:59:04.369Z,1765
2018-06-28T08:00:06.047Z,1780
2018-06-28T08:01:07.726Z,1780
2018-06-28T08:02:09.403Z,1660
2018-06-28T08:03:11.076Z,1675
2018-06-28T08:04:12.759Z,1620
2018-06-28T08:05:14.450Z,1655
2018-06-28T08:06:16.121Z,1610
2018-06-28T08:07:17.795Z,1550
2018-06-28T08:08:19.480Z,1370
2018-06-28T08:09:21.152Z,1350
2018-06-28T08:10:22.825Z,1395
2018-06-28T08:11:24.499Z,1470
2018-06-28T08:12:26.166Z,1610
2018-06-28T08:13:27.845Z,1695
2018-06-28T08:14:29.526Z,1735
2018-06-28T08:15:31.201Z,1775
2018-06-28T08:16:32.874Z,1795
2018-06-28T08:17:34.552Z,1805
2018-06-28T08:18:36.237Z,1835
2018-06-28T08:19:37.926Z,1755
2018-06-28T08:20:39.606Z,1785
2018-06-28T08:21:41.289Z,1800
2018-06-28T08:22:42.959Z,1780
2018-06-28T08:23:44.633Z,1660
2018-06-28T08:24:46.314Z,1660
2018-06-28T08:25:47.991Z,1635
2018-06-28T08:26:49.696Z,1620
2018-06-28T08:27:51.351Z,1630
2018-06-28T08:28:53.018Z,1565
2018-06-28T08:29:54.703Z,1505
2018-06-28T08:30:56.374Z,1505
2018-06-28T08:31:58.054Z,1585
2018-06-28T08:32:59.727Z,1625
2018-06-28T08:34:01.398Z,1480
2018-06-28T08:35:03.080Z,1425
2018-06-28T08:36:04.791Z,1550
2018-06-28T08:37:06.950Z,1665
2018-06-28T08:38:08.789Z,1815
2018-06-28T08:39:10.763Z,1750
2018-06-28T08:40:12.779Z,1735
2018-06-28T08:41:15.049Z,1835
2018-06-28T08:42:17.143Z,1920
2018-06-28T08:43:18.949Z,2185
2018-06-28T08:44:22.044Z,1950
2018-06-28T08:45:25.410Z,1975
2018-06-28T08:46:28.185Z,2000
2018-06-28T08:47:31.750Z,1980
2018-06-28T08:48:34.099Z,2015
2018-06-28T08:49:37.078Z,2020
2018-06-28T08:50:40.267Z,2045
2018-06-28T08:51:42.748Z,2050
2018-06-28T08:52:44.522Z,2045
2018-06-28T08:53:46.233Z,2030
2018-06-28T08:54:47.962Z,2075
2018-06-28T08:55:49.665Z,2010
2018-06-28T08:56:51.377Z,1995
2018-06-28T08:57:53.267Z,1975
2018-06-28T08:58:54.788Z,1945
2018-06-28T08:59:56.529Z,1890
2018-06-28T09:00:58.220Z,1950
2018-06-28T09:01:59.953Z,2100
2018-06-28T09:03:01.658Z,2125
2018-06-28T09:04:03.382Z,2175
2018-06-28T09:05:05.082Z,2200
2018-06-28T09:06:06.802Z,2235
2018-06-28T09:07:08.521Z,2240
2018-06-28T09:08:10.220Z,2235
2018-06-28T09:09:11.904Z,2185
2018-06-28T09:10:13.602Z,2035
2018-06-28T09:11:15.276Z,2015
2018-06-28T09:12:16.947Z,2045
2018-06-28T09:13:18.625Z,2220
2018-06-28T09:14:20.323Z,2230
2018-06-28T09:15:21.997Z,2255
2018-06-28T09:16:23.675Z,2185
2018-06-28T09:17:25.345Z,2210
2018-06-28T09:18:27.014Z,2170
2018-06-28T09:19:28.688Z,2220
2018-06-28T09:20:30.391Z,2230
2018-06-28T09:21:32.065Z,2180
2018-06-28T09:22:33.763Z,2070
2018-06-28T09:23:35.415Z,1950
2018-06-28T09:24:37.088Z,1900
2018-06-28T09:25:38.767Z,1895
2018-06-28T09:26:40.440Z,775
2018-06-28T09:27:42.121Z,1945
2018-06-28T09:28:43.799Z,1945
2018-06-28T09:29:45.481Z,1910
2018-06-28T09:30:47.147Z,770
2018-06-28T09:31:48.818Z,1085
2018-06-28T09:32:50.495Z,690
2018-06-28T09:33:52.179Z,1705
2018-06-28T09:34:53.856Z,1720
2018-06-28T09:35:55.561Z,1770
2018-06-28T09:36:57.202Z,1745
2018-06-28T09:37:58.901Z,1650
2018-06-28T09:39:00.574Z,1630
2018-06-28T09:40:02.248Z,1695
2018-06-28T09:41:03.959Z,1635
2018-06-28T09:42:05.633Z,1735
2018-06-28T09:43:07.310Z,1685
2018-06-28T09:44:08.989Z,1695
2018-06-28T09:45:10.671Z,1770
2018-06-28T09:46:12.338Z,1810
2018-06-28T09:47:14.014Z,1835
2018-06-28T09:48:15.678Z,2330
2018-06-28T09:49:17.357Z,3635
2018-06-28T09:50:19.034Z,4185
2018-06-28T09:51:20.723Z,3545
2018-06-28T09:52:22.393Z,3480
2018-06-28T09:53:24.073Z,3755
2018-06-28T09:54:25.747Z,3725
2018-06-28T09:55:27.419Z,3605
2018-06-28T10:01:26.718Z,3440
2018-06-28T10:02:28.402Z,3505
2018-06-28T10:04:20.484Z,3550
2018-06-28T10:05:22.167Z,3280
2018-06-28T10:06:23.854Z,3285
2018-06-28T10:07:25.541Z,3370
2018-06-28T10:08:27.224Z,3435
2018-06-28T10:09:28.908Z,3575
2018-06-28T10:10:30.577Z,3565
2018-06-28T10:11:32.252Z,3440
2018-06-28T10:12:33.934Z,3545
2018-06-28T10:13:35.629Z,3715
2018-06-28T10:14:37.324Z,3830
2018-06-28T10:15:39.002Z,3850
2018-06-28T10:16:40.683Z,3890
2018-06-28T10:17:42.363Z,4000
2018-06-28T10:18:44.032Z,3865
2018-06-28T10:19:45.716Z,3825
2018-06-28T10:20:47.450Z,3770
2018-06-28T10:21:49.078Z,3685
2018-06-28T10:22:50.759Z,3760
2018-06-28T10:23:52.430Z,3840
2018-06-28T10:24:54.148Z,4000
2018-06-28T10:25:55.799Z,4000
2018-06-28T10:26:57.469Z,3835
2018-06-28T10:27:59.150Z,3860
2018-06-28T10:29:00.830Z,3935
2018-06-28T10:30:02.534Z,3905
2018-06-28T10:31:04.245Z,3925
2018-06-28T10:32:05.946Z,3745
2018-06-28T10:33:07.678Z,3925
2018-06-28T10:34:23.767Z,4110
2018-06-28T10:35:25.577Z,3970
2018-06-28T10:36:27.260Z,3995
2018-06-28T10:37:28.938Z,4155
2018-06-28T10:38:30.619Z,4090
2018-06-28T10:39:32.302Z,4195
2018-06-28T10:40:33.986Z,4265
2018-06-28T10:41:35.659Z,4465
2018-06-28T10:42:37.332Z,4160
2018-06-28T10:43:39.013Z,4005
2018-06-28T10:44:40.689Z,4255
2018-06-28T10:45:42.362Z,4345
2018-06-28T10:46:44.043Z,4270
2018-06-28T10:47:45.721Z,4175
2018-06-28T10:48:47.403Z,4180
2018-06-28T10:49:49.122Z,4190
2018-06-28T10:50:50.803Z,4105
2018-06-28T10:51:52.489Z,4020
2018-06-28T10:52:54.160Z,4000
2018-06-28T10:53:55.854Z,3985
2018-06-28T10:54:57.519Z,3780
2018-06-28T10:55:59.243Z,3835
2018-06-28T10:57:00.925Z,4035
2018-06-28T10:58:02.617Z,4130
2018-06-28T10:59:04.319Z,4290
2018-06-28T11:00:06.013Z,4225
2018-06-28T11:01:07.693Z,4125
2018-06-28T11:02:09.377Z,3955
2018-06-28T11:03:11.066Z,3830
2018-06-28T11:04:12.734Z,4105
2018-06-28T11:05:14.412Z,4245
2018-06-28T11:06:16.103Z,4250
2018-06-28T11:07:17.873Z,4305
2018-06-28T11:08:19.528Z,4245
2018-06-28T11:09:21.157Z,4220
2018-06-28T11:10:22.827Z,4275
2018-06-28T11:11:24.498Z,4480
2018-06-28T11:12:26.172Z,4495
2018-06-28T11:13:27.861Z,3970
2018-06-28T11:14:29.532Z,4610
2018-06-28T11:15:31.222Z,4810
2018-06-28T11:16:32.903Z,2820
2018-06-28T11:17:34.580Z,1640
2018-06-28T11:18:36.300Z,4855
2018-06-28T11:19:37.944Z,4935
2018-06-28T11:20:39.630Z,1815
2018-06-28T11:21:41.309Z,2730
2018-06-28T11:22:43.001Z,1120
2018-06-28T11:23:44.703Z,1005
2018-06-28T11:24:46.392Z,930
2018-06-28T11:25:48.071Z,975
2018-06-28T11:26:49.742Z,835
2018-06-28T11:27:51.418Z,715
2018-06-28T11:28:53.106Z,670
2018-06-28T11:29:54.786Z,870
2018-06-28T11:30:56.467Z,3970
2018-06-28T11:31:58.142Z,4120
2018-06-28T11:32:59.843Z,4005
2018-06-28T11:34:01.530Z,3885
2018-06-28T11:35:03.197Z,3755
2018-06-28T11:36:04.914Z,3510
2018-06-28T11:37:06.590Z,3600
2018-06-28T11:38:08.277Z,3065
2018-06-28T11:39:09.957Z,3300
2018-06-28T11:40:11.627Z,4040
2018-06-28T11:41:13.310Z,3930
2018-06-28T11:42:14.995Z,3840
2018-06-28T11:43:16.671Z,4025
2018-06-28T11:44:18.364Z,3965
2018-06-28T11:45:20.044Z,4275
2018-06-28T11:46:21.722Z,1560
2018-06-28T11:47:23.403Z,4010
2018-06-28T11:48:25.077Z,1180
2018-06-28T11:49:26.750Z,4200
2018-06-28T11:50:28.427Z,3975
2018-06-28T11:51:30.105Z,3550
2018-06-28T11:52:31.786Z,3910
2018-06-28T11:53:33.467Z,3690
2018-06-28T11:54:35.155Z,1550
2018-06-28T11:55:36.832Z,4230
2018-06-28T11:56:38.525Z,4205
2018-06-28T11:57:40.209Z,4285
2018-06-28T11:58:41.902Z,4190
2018-06-28T11:59:43.585Z,1275
2018-06-28T12:00:45.253Z,1380
2018-06-28T12:01:46.927Z,1550
2018-06-28T12:02:48.601Z,1020
2018-06-28T12:03:50.278Z,915
2018-06-28T12:04:51.979Z,900
2018-06-28T12:05:53.675Z,980
2018-06-28T12:06:55.351Z,1010
2018-06-28T12:07:57.032Z,1015
2018-06-28T12:08:58.740Z,1060
2018-06-28T12:10:00.412Z,2140
2018-06-28T12:11:02.084Z,1165
2018-06-28T12:12:03.803Z,2215
2018-06-28T12:13:05.447Z,3275
2018-06-28T12:14:07.132Z,3220
2018-06-28T12:15:08.806Z,2365
2018-06-28T12:16:10.480Z,1075
2018-06-28T12:17:12.154Z,1050
2018-06-28T12:18:13.824Z,1730
2018-06-28T12:19:15.492Z,880
2018-06-28T12:20:17.173Z,820
2018-06-28T12:21:18.877Z,760
2018-06-28T12:22:20.551Z,755
2018-06-28T12:23:22.218Z,805
2018-06-28T12:24:23.904Z,1835
2018-06-28T12:25:25.578Z,805
2018-06-28T12:26:27.248Z,840
2018-06-28T12:27:28.927Z,1500
2018-06-28T12:28:30.604Z,845
2018-06-28T12:29:32.269Z,1030
2018-06-28T12:30:33.943Z,900
2018-06-28T12:31:35.628Z,945
2018-06-28T12:32:37.325Z,1045
2018-06-28T12:33:39.038Z,2290
2018-06-28T12:34:40.710Z,2575
2018-06-28T12:35:42.389Z,2200
2018-06-28T12:36:44.064Z,2470
2018-06-28T12:37:45.740Z,2440
2018-06-28T12:38:47.419Z,3165
2018-06-28T12:39:49.131Z,3460
2018-06-28T12:40:50.817Z,2960
2018-06-28T12:41:52.490Z,3370
2018-06-28T12:42:54.167Z,1440
2018-06-28T12:43:55.834Z,1340
2018-06-28T12:44:57.511Z,1225
2018-06-28T12:45:59.179Z,1890
2018-06-28T12:47:00.859Z,1010
2018-06-28T12:48:02.532Z,910
2018-06-28T12:49:04.229Z,835
2018-06-28T12:50:05.906Z,860
2018-06-28T12:51:07.578Z,925
2018-06-28T12:52:09.246Z,3195
2018-06-28T12:53:10.923Z,3215
2018-06-28T12:54:12.653Z,3230
2018-06-28T12:55:14.271Z,3250
2018-06-28T12:56:15.949Z,3155
2018-06-28T12:57:17.628Z,1605
2018-06-28T12:58:19.295Z,2180
2018-06-28T12:59:20.964Z,3150
2018-06-28T13:00:22.628Z,3370
2018-06-28T13:01:24.318Z,3395
2018-06-28T13:02:26.006Z,3330
2018-06-28T13:03:27.674Z,3200
2018-06-28T13:04:29.361Z,3300
2018-06-28T13:05:31.038Z,3175
2018-06-28T13:06:32.783Z,3130
2018-06-28T13:07:34.468Z,3190
2018-06-28T13:08:36.138Z,1425
2018-06-28T13:09:37.814Z,1125
2018-06-28T13:10:39.514Z,1170
2018-06-28T13:11:41.211Z,1275
2018-06-28T13:12:42.963Z,1130
2018-06-28T13:13:44.522Z,920
2018-06-28T13:14:46.203Z,1925
2018-06-28T13:15:47.891Z,995
2018-06-28T13:16:49.565Z,995
2018-06-28T13:17:51.249Z,2635
2018-06-28T13:18:52.925Z,1040
2018-06-28T13:19:54.602Z,1100
2018-06-28T13:20:56.280Z,1000
2018-06-28T13:21:57.954Z,1430
2018-06-28T13:22:59.641Z,2955
2018-06-28T13:24:01.324Z,2940
2018-06-28T13:25:03.005Z,3060
2018-06-28T13:26:04.732Z,1120
2018-06-28T13:27:06.397Z,2310
2018-06-28T13:28:08.071Z,1065
2018-06-28T13:29:09.766Z,1210
2018-06-28T13:30:11.424Z,695
2018-06-28T13:31:13.095Z,665
2018-06-28T13:32:14.787Z,690
2018-06-28T13:33:16.456Z,750
2018-06-28T13:34:18.138Z,715
2018-06-28T13:35:19.804Z,2550
2018-06-28T13:36:21.479Z,2615
2018-06-28T13:37:23.169Z,2830
2018-06-28T13:38:24.836Z,2910
2018-06-28T13:39:26.548Z,2820
2018-06-28T13:40:28.171Z,2875
2018-06-28T13:41:30.004Z,2915
2018-06-28T13:42:31.520Z,3040
2018-06-28T13:43:33.197Z,3165
2018-06-28T13:44:34.874Z,3160
2018-06-28T13:45:36.546Z,3295
2018-06-28T13:46:38.239Z,2480
2018-06-28T13:47:39.906Z,1015
2018-06-28T13:48:41.591Z,1030
2018-06-28T13:49:43.260Z,815
2018-06-28T13:50:44.934Z,715
2018-06-28T13:51:46.636Z,670
2018-06-28T13:52:48.303Z,645
2018-06-28T13:53:49.980Z,660
2018-06-28T13:54:51.653Z,2085
2018-06-28T14:01:08.081Z,2840
2018-06-28T14:02:09.751Z,2970
2018-06-28T14:04:01.768Z,3170
2018-06-28T14:05:03.448Z,3245
2018-06-28T14:06:55.413Z,3115
2018-06-28T14:07:57.095Z,2965
2018-06-28T14:08:58.774Z,2835
2018-06-28T14:10:00.447Z,2840
2018-06-28T14:11:02.120Z,610
2018-06-28T14:12:03.793Z,550
2018-06-28T14:13:05.511Z,530
2018-06-28T14:14:07.191Z,540
2018-06-28T14:15:08.865Z,600
2018-06-28T14:16:10.557Z,1720
2018-06-28T14:17:12.230Z,2605
2018-06-28T14:18:13.918Z,2690
2018-06-28T14:19:15.589Z,2595
2018-06-28T14:20:17.263Z,2605
2018-06-28T14:21:18.940Z,2730
2018-06-28T14:22:20.674Z,2785
2018-06-28T14:23:22.288Z,2820
2018-06-28T14:24:23.972Z,2815
2018-06-28T14:25:25.673Z,2955
2018-06-28T14:26:27.928Z,3020
2018-06-28T14:27:29.603Z,860
2018-06-28T14:28:31.271Z,805
2018-06-28T14:29:32.946Z,2570
2018-06-28T14:30:34.629Z,2785
2018-06-28T14:31:36.305Z,2865
2018-06-28T14:32:37.978Z,865
2018-06-28T14:33:39.700Z,690
2018-06-28T14:34:41.358Z,615